createdAt,value
2022-12-04T00:01:23.950Z,78.10
2022-12-04T00:03:58.519Z,75.20
2022-12-04T00:06:27.807Z,75.65
2022-12-04T00:08:56.344Z,81.85
2022-12-04T00:11:28.659Z,74.95
2022-12-04T00:14:00.246Z,76.40
2022-12-04T00:16:31.548Z,78.45
2022-12-04T00:19:01.477Z,74.35
2022-12-04T00:21:29.453Z,72.25
2022-12-04T00:23:59.311Z,76.13
2022-12-04T00:26:31.115Z,81.15
2022-12-04T00:28:59.831Z,58.53
2022-12-04T00:31:29.673Z,82.25
2022-12-04T00:33:57.097Z,78.20
2022-12-04T00:36:27.219Z,71.68
2022-12-04T00:38:55.182Z,77.50
2022-12-04T00:41:24.742Z,76.50
2022-12-04T00:43:51.872Z,70.03
2022-12-04T00:46:21.658Z,69.55
2022-12-04T00:48:48.735Z,76.57
2022-12-04T00:51:22.475Z,75.97
2022-12-04T00:53:50.729Z,74.00
2022-12-04T00:56:22.896Z,80.28
2022-12-04T00:58:58.802Z,79.50
2022-12-04T01:01:29.347Z,76.47
2022-12-04T01:03:57.765Z,70.97
2022-12-04T01:06:31.208Z,75.57
2022-12-04T01:09:03.332Z,77.68
2022-12-04T01:11:32.996Z,78.70
2022-12-04T01:14:01.309Z,73.65
2022-12-04T01:16:33.238Z,79.20
2022-12-04T01:19:04.432Z,56.55
2022-12-04T01:21:36.795Z,75.53
2022-12-04T01:24:06.408Z,81.70
2022-12-04T01:26:33.623Z,72.53
2022-12-04T01:29:02.065Z,74.00
2022-12-04T01:31:29.233Z,75.70
2022-12-04T01:33:58.584Z,70.72
2022-12-04T01:36:28.221Z,74.38
2022-12-04T01:38:56.641Z,64.38
2022-12-04T01:41:29.096Z,70.68
2022-12-04T01:44:19.568Z,70.25
2022-12-04T01:46:57.348Z,68.70
2022-12-04T01:49:36.382Z,74.63
2022-12-04T01:52:09.700Z,71.60
2022-12-04T01:57:31.108Z,82.00
2022-12-04T02:00:02.625Z,69.10
2022-12-04T02:02:36.993Z,69.70
2022-12-04T02:05:10.582Z,73.72
2022-12-04T02:07:39.845Z,76.38
2022-12-04T02:10:13.016Z,72.95
2022-12-04T02:12:53.689Z,74.63
2022-12-04T02:15:31.803Z,73.32
2022-12-04T02:18:16.454Z,76.30
2022-12-04T02:21:04.620Z,76.47
2022-12-04T02:23:47.718Z,73.88
2022-12-04T02:26:40.002Z,78.47
2022-12-04T02:29:27.197Z,74.40
2022-12-04T02:31:57.153Z,69.75
2022-12-04T02:34:38.863Z,75.50
2022-12-04T02:37:14.363Z,78.32
2022-12-04T02:39:52.400Z,78.97
2022-12-04T02:42:47.778Z,74.18
2022-12-04T02:45:40.402Z,77.72
2022-12-04T02:50:40.201Z,78.45
2022-12-04T02:53:15.005Z,53.97
2022-12-04T02:55:52.288Z,75.00
2022-12-04T02:58:29.464Z,78.53
2022-12-04T03:01:02.607Z,81.13
2022-12-04T03:03:34.524Z,76.72
2022-12-04T03:06:11.691Z,85.40
2022-12-04T03:08:45.642Z,80.55
2022-12-04T03:11:12.674Z,76.00
2022-12-04T03:13:58.402Z,77.45
2022-12-04T03:16:31.420Z,73.78
2022-12-04T03:19:08.949Z,79.68
2022-12-04T03:21:41.495Z,74.75
2022-12-04T03:24:20.029Z,79.68
2022-12-04T03:26:58.459Z,79.20
2022-12-04T03:29:51.184Z,78.88
2022-12-04T03:32:45.792Z,79.03
2022-12-04T03:35:51.271Z,83.03
2022-12-04T03:38:22.588Z,75.22
2022-12-04T03:41:22.130Z,77.47
2022-12-04T03:43:55.576Z,78.93
2022-12-04T03:46:29.881Z,81.30
2022-12-04T03:49:09.694Z,76.97
2022-12-04T03:52:11.076Z,77.53
2022-12-04T03:55:06.735Z,81.75
2022-12-04T03:57:42.071Z,71.95
2022-12-04T04:00:21.291Z,79.72
2022-12-04T04:03:07.418Z,80.50
2022-12-04T04:05:41.763Z,80.20
2022-12-04T04:08:36.072Z,76.80
2022-12-04T04:11:17.784Z,76.90
2022-12-04T04:14:14.432Z,75.20
2022-12-04T04:17:07.892Z,82.32
2022-12-04T04:19:56.693Z,76.45
2022-12-04T04:23:11.338Z,74.90
2022-12-04T04:25:42.581Z,67.68
2022-12-04T04:28:28.482Z,75.90
2022-12-04T04:31:00.183Z,74.47
2022-12-04T04:33:28.493Z,67.37
2022-12-04T04:36:23.775Z,75.60
2022-12-04T04:39:14.059Z,69.25
2022-12-04T04:42:14.773Z,72.97
2022-12-04T04:45:05.024Z,74.32
2022-12-04T04:47:42.104Z,79.45
2022-12-04T04:50:16.196Z,74.00
2022-12-04T04:52:48.145Z,75.43
2022-12-04T04:55:17.780Z,76.35
2022-12-04T04:57:45.824Z,78.05
2022-12-04T05:00:18.320Z,82.10
2022-12-04T05:02:50.507Z,73.10
2022-12-04T05:05:25.866Z,69.95
2022-12-04T05:07:52.803Z,76.57
2022-12-04T05:10:49.581Z,73.18
2022-12-04T05:13:17.277Z,74.05
2022-12-04T05:15:45.204Z,75.53
2022-12-04T05:18:15.211Z,72.60
2022-12-04T05:20:45.104Z,79.25
2022-12-04T05:23:13.925Z,76.78
2022-12-04T05:25:44.163Z,73.78
2022-12-04T05:28:14.818Z,74.70
2022-12-04T05:30:44.788Z,78.93
2022-12-04T05:33:11.663Z,78.07
2022-12-04T05:35:41.995Z,77.75
2022-12-04T05:38:08.845Z,80.47
2022-12-04T05:40:38.915Z,73.75
2022-12-04T05:43:08.807Z,77.50
2022-12-04T05:45:35.684Z,83.03
2022-12-04T05:48:02.555Z,80.60
2022-12-04T05:50:30.443Z,73.53
2022-12-04T05:52:57.492Z,81.93
2022-12-04T05:55:25.455Z,79.15
2022-12-04T05:57:55.688Z,76.20
2022-12-04T06:00:42.716Z,84.20
2022-12-04T06:03:16.437Z,75.97
2022-12-04T06:05:46.771Z,82.45
2022-12-04T06:08:14.066Z,79.78
2022-12-04T06:10:41.078Z,87.22
2022-12-04T06:13:08.981Z,88.50
2022-12-04T06:16:02.582Z,83.70
2022-12-04T06:18:36.169Z,78.63
2022-12-04T06:21:06.788Z,86.07
2022-12-04T06:23:33.571Z,84.32
2022-12-04T06:26:09.054Z,80.10
2022-12-04T06:28:40.386Z,73.63
2022-12-04T06:31:09.794Z,81.25
2022-12-04T06:33:40.286Z,76.78
2022-12-04T06:36:14.458Z,79.55
2022-12-04T06:38:42.135Z,80.55
2022-12-04T06:41:12.595Z,85.28
2022-12-04T06:43:43.059Z,80.22
2022-12-04T06:46:20.016Z,85.97
2022-12-04T06:48:47.609Z,88.07
2022-12-04T06:51:22.954Z,84.63
2022-12-04T06:53:51.428Z,85.28
2022-12-04T06:56:25.425Z,85.28
2022-12-04T06:58:56.052Z,89.95
2022-12-04T07:01:30.399Z,81.57
2022-12-04T07:03:58.289Z,76.45
2022-12-04T07:06:37.676Z,81.97
2022-12-04T07:09:09.900Z,79.45
2022-12-04T07:11:39.270Z,81.75
2022-12-04T07:14:06.647Z,80.75
2022-12-04T07:16:40.273Z,80.75
2022-12-04T07:19:13.004Z,81.78
2022-12-04T07:21:41.987Z,82.65
2022-12-04T07:24:13.706Z,78.75
2022-12-04T07:26:42.978Z,84.83
2022-12-04T07:29:10.636Z,84.28
2022-12-04T07:31:38.988Z,80.80
2022-12-04T07:34:07.430Z,83.90
2022-12-04T07:36:34.301Z,77.68
2022-12-04T07:39:02.290Z,83.72
2022-12-04T07:41:30.360Z,82.07
2022-12-04T07:43:58.254Z,81.65
2022-12-04T07:46:28.179Z,77.97
2022-12-04T07:48:56.699Z,85.13
2022-12-04T07:51:26.442Z,78.68
2022-12-04T07:53:55.398Z,85.53
2022-12-04T07:56:23.302Z,82.32
2022-12-04T07:58:51.286Z,78.93
2022-12-04T08:01:21.776Z,77.85
2022-12-04T08:03:56.251Z,85.50
2022-12-04T08:06:25.868Z,85.75
2022-12-04T08:08:55.027Z,86.22
2022-12-04T08:11:24.039Z,87.88
2022-12-04T08:14:03.534Z,84.35
2022-12-04T08:16:32.825Z,81.22
2022-12-04T08:19:00.751Z,82.95
2022-12-04T08:21:32.262Z,85.00
2022-12-04T08:24:00.244Z,78.10
2022-12-04T08:26:30.897Z,81.03
2022-12-04T08:29:02.610Z,79.15
2022-12-04T08:31:32.878Z,77.80
2022-12-04T08:34:03.166Z,82.90
2022-12-04T08:36:31.860Z,82.20
2022-12-04T08:38:59.825Z,82.63
2022-12-04T08:41:27.558Z,80.45
2022-12-04T08:43:55.710Z,78.45
2022-12-04T08:46:24.849Z,78.45
2022-12-04T08:48:53.371Z,82.45
2022-12-04T08:51:25.459Z,81.75
2022-12-04T08:53:57.124Z,78.57
2022-12-04T08:56:26.002Z,76.05
2022-12-04T08:58:56.027Z,79.65
2022-12-04T09:01:25.713Z,81.25
2022-12-04T09:03:53.344Z,76.75
2022-12-04T09:06:20.967Z,81.80
2022-12-04T09:08:54.086Z,77.72
2022-12-04T09:11:24.104Z,80.82
2022-12-04T09:13:56.019Z,71.38
2022-12-04T09:16:26.815Z,83.40
2022-12-04T09:18:59.213Z,81.10
2022-12-04T09:21:29.629Z,79.75
2022-12-04T09:23:56.475Z,82.05
2022-12-04T09:26:31.737Z,83.10
2022-12-04T09:29:16.766Z,87.43
2022-12-04T09:31:46.634Z,84.53
2022-12-04T09:34:15.619Z,77.85
2022-12-04T09:36:43.585Z,79.57
2022-12-04T09:39:11.632Z,81.80
2022-12-04T09:42:09.384Z,75.22
2022-12-04T09:45:14.363Z,76.97
2022-12-04T09:47:52.687Z,78.40
2022-12-04T09:50:29.816Z,78.32
2022-12-04T09:53:17.764Z,75.20
2022-12-04T09:56:00.403Z,71.95
2022-12-04T09:58:49.809Z,70.93
2022-12-04T10:01:28.497Z,67.53
2022-12-04T10:04:08.316Z,63.75
2022-12-04T10:07:12.605Z,65.70
2022-12-04T10:10:00.863Z,69.47
2022-12-04T10:12:45.585Z,66.97
2022-12-04T10:15:28.749Z,71.68
2022-12-04T10:18:16.986Z,63.42
2022-12-04T10:20:54.887Z,65.82
2022-12-04T10:23:40.596Z,63.70
2022-12-04T10:26:15.814Z,67.63
2022-12-04T10:29:02.046Z,63.33
2022-12-04T10:31:32.096Z,59.78
2022-12-04T10:34:18.211Z,56.70
2022-12-04T10:36:52.337Z,55.88
2022-12-04T10:39:35.462Z,51.15
2022-12-04T10:42:14.367Z,61.53
2022-12-04T10:44:41.428Z,53.17
2022-12-04T10:47:18.466Z,57.13
2022-12-04T10:49:45.647Z,54.85
2022-12-04T10:52:13.532Z,59.45
2022-12-04T10:54:53.851Z,53.10
2022-12-04T10:57:20.831Z,56.90
2022-12-04T10:59:55.127Z,55.03
2022-12-04T11:02:29.459Z,59.22
2022-12-04T11:05:07.128Z,57.15
2022-12-04T11:07:48.589Z,53.92
2022-12-04T11:10:24.179Z,54.03
2022-12-04T11:12:59.864Z,53.85
2022-12-04T11:15:29.762Z,57.58
2022-12-04T11:18:15.408Z,53.78
2022-12-04T11:21:06.114Z,55.53
2022-12-04T11:23:41.375Z,50.58
2022-12-04T11:26:11.787Z,52.85
2022-12-04T11:28:44.243Z,47.22
2022-12-04T11:31:18.240Z,46.53
2022-12-04T11:33:53.096Z,48.67
2022-12-04T11:36:31.740Z,48.20
2022-12-04T11:39:30.705Z,54.63
2022-12-04T11:42:28.310Z,50.05
2022-12-04T11:44:59.199Z,42.67
2022-12-04T11:47:31.384Z,49.10
2022-12-04T11:50:26.586Z,53.60
2022-12-04T11:53:12.674Z,47.42
2022-12-04T11:56:08.548Z,49.15
2022-12-04T11:59:17.294Z,44.28
2022-12-04T12:02:14.366Z,47.83
2022-12-04T12:04:59.592Z,42.20
2022-12-04T12:07:35.112Z,45.97
2022-12-04T12:10:26.929Z,48.47
2022-12-04T12:13:19.194Z,44.67
2022-12-04T12:16:12.975Z,42.90
2022-12-04T12:19:22.632Z,43.45
2022-12-04T12:22:06.969Z,44.80
2022-12-04T12:24:44.564Z,41.50
2022-12-04T12:27:32.841Z,44.53
2022-12-04T12:30:20.350Z,43.45
2022-12-04T12:32:55.103Z,39.67
2022-12-04T12:35:34.201Z,40.97
2022-12-04T12:38:26.238Z,45.20
2022-12-04T12:41:22.875Z,39.38
2022-12-04T12:44:00.969Z,41.92
2022-12-04T12:46:34.684Z,45.33
2022-12-04T12:49:10.918Z,46.15
2022-12-04T12:51:56.983Z,44.83
2022-12-04T12:54:58.929Z,43.30
2022-12-04T12:57:38.284Z,41.13
2022-12-04T13:00:15.710Z,38.22
2022-12-04T13:03:00.564Z,42.05
2022-12-04T13:05:38.051Z,38.63
2022-12-04T13:08:20.703Z,36.65
2022-12-04T13:11:01.727Z,38.75
2022-12-04T13:13:34.093Z,40.42
2022-12-04T13:16:14.435Z,36.22
2022-12-04T13:19:10.035Z,38.67
2022-12-04T13:22:08.241Z,38.45
2022-12-04T13:24:56.732Z,36.60
2022-12-04T13:27:23.660Z,39.10
2022-12-04T13:30:06.817Z,36.67
2022-12-04T13:32:57.424Z,35.97
2022-12-04T13:35:48.402Z,34.42
2022-12-04T13:38:27.543Z,31.27
2022-12-04T13:41:02.986Z,30.65
2022-12-04T13:43:44.768Z,29.15
2022-12-04T13:46:40.135Z,33.38
2022-12-04T13:49:20.344Z,33.72
2022-12-04T13:51:49.021Z,32.60
2022-12-04T13:54:16.864Z,30.17
2022-12-04T13:56:50.138Z,30.25
2022-12-04T13:59:35.183Z,29.15
2022-12-04T14:02:35.809Z,33.92
2022-12-04T14:05:10.475Z,35.13
2022-12-04T14:07:44.840Z,36.97
2022-12-04T14:10:14.746Z,32.83
2022-12-04T14:12:59.037Z,33.10
2022-12-04T14:15:36.844Z,35.83
2022-12-04T14:18:13.248Z,35.55
2022-12-04T14:20:42.926Z,33.65
2022-12-04T14:23:19.983Z,30.20
2022-12-04T14:25:46.867Z,34.10
2022-12-04T14:28:35.949Z,33.13
2022-12-04T14:31:05.755Z,33.75
2022-12-04T14:33:58.199Z,34.88
2022-12-04T14:36:34.987Z,32.63
2022-12-04T14:39:36.565Z,31.90
2022-12-04T14:42:25.585Z,32.53
2022-12-04T14:44:58.763Z,37.25
2022-12-04T14:48:22.454Z,36.17
2022-12-04T14:50:56.198Z,38.25
2022-12-04T14:53:28.954Z,35.95
2022-12-04T14:58:43.706Z,41.17
2022-12-04T15:01:29.084Z,40.65
2022-12-04T15:04:01.495Z,40.42
2022-12-04T15:06:33.123Z,37.13
2022-12-04T15:09:22.742Z,40.95
2022-12-04T15:12:11.896Z,42.00
2022-12-04T15:14:48.686Z,41.42
2022-12-04T15:17:18.747Z,42.78
2022-12-04T15:19:46.667Z,40.42
2022-12-04T15:22:25.776Z,38.40
2022-12-04T15:24:53.884Z,42.20
2022-12-04T15:27:28.819Z,41.55
2022-12-04T15:30:02.049Z,42.72
2022-12-04T15:32:31.669Z,37.45
2022-12-04T15:35:05.603Z,42.35
2022-12-04T15:37:34.094Z,40.50
2022-12-04T15:40:08.631Z,41.53
2022-12-04T15:42:35.527Z,44.00
2022-12-04T15:45:09.657Z,40.90
2022-12-04T15:47:42.771Z,40.28
2022-12-04T15:50:15.707Z,42.15
2022-12-04T15:52:56.251Z,46.92
2022-12-04T15:55:24.831Z,46.75
2022-12-04T15:57:55.797Z,44.40
2022-12-04T16:00:36.305Z,43.17
2022-12-04T16:03:18.918Z,45.65
2022-12-04T16:05:47.247Z,45.28
2022-12-04T16:08:30.509Z,45.83
2022-12-04T16:11:01.908Z,43.10
2022-12-04T16:13:37.511Z,42.03
2022-12-04T16:16:12.711Z,41.38
2022-12-04T16:18:39.934Z,41.60
2022-12-04T16:21:16.928Z,42.05
2022-12-04T16:23:46.265Z,51.25
2022-12-04T16:26:18.043Z,46.33
2022-12-04T16:28:45.487Z,45.60
2022-12-04T16:31:13.683Z,44.38
2022-12-04T16:33:41.641Z,44.38
2022-12-04T16:36:12.766Z,43.15
2022-12-04T16:38:39.747Z,44.33
2022-12-04T16:41:11.694Z,44.80
2022-12-04T16:43:41.308Z,49.85
2022-12-04T16:46:16.021Z,43.05
2022-12-04T16:48:45.630Z,45.03
2022-12-04T16:51:17.375Z,47.20
2022-12-04T16:54:10.947Z,44.97
2022-12-04T16:56:41.709Z,49.50
2022-12-04T16:59:12.161Z,42.92
2022-12-04T17:01:53.715Z,43.45
2022-12-04T17:04:21.055Z,43.03
2022-12-04T17:06:50.326Z,43.15
2022-12-04T17:09:20.560Z,44.28
2022-12-04T17:11:47.657Z,39.90
2022-12-04T17:14:14.944Z,49.00
2022-12-04T17:16:45.160Z,41.38
2022-12-04T17:19:17.289Z,44.13
2022-12-04T17:21:47.021Z,39.17
2022-12-04T17:24:18.394Z,42.50
2022-12-04T17:26:47.537Z,40.70
2022-12-04T17:29:19.880Z,41.55
2022-12-04T17:31:53.079Z,44.78
2022-12-04T17:34:19.939Z,39.00
2022-12-04T17:36:46.735Z,41.92
2022-12-04T17:39:13.818Z,40.78
2022-12-04T17:41:44.458Z,43.33
2022-12-04T17:44:15.050Z,40.78
2022-12-04T17:46:45.695Z,43.33
2022-12-04T17:49:12.711Z,50.13
2022-12-04T17:51:40.964Z,44.08
2022-12-04T17:54:11.133Z,45.22
2022-12-04T17:56:41.309Z,42.72
2022-12-04T17:59:11.298Z,45.92
2022-12-04T18:01:38.375Z,43.90
2022-12-04T18:04:08.234Z,42.30
2022-12-04T18:06:43.162Z,48.58
2022-12-04T18:09:15.692Z,48.15
2022-12-04T18:11:46.061Z,42.83
2022-12-04T18:14:16.391Z,49.75
2022-12-04T18:16:53.101Z,46.30
2022-12-04T18:19:25.842Z,45.83
2022-12-04T18:21:55.576Z,46.72
2022-12-04T18:24:27.384Z,48.40
2022-12-04T18:27:25.395Z,46.55
2022-12-04T18:30:52.914Z,46.78
2022-12-04T18:33:24.167Z,51.13
2022-12-04T18:35:58.475Z,86.53
2022-12-04T18:38:32.368Z,60.95
2022-12-04T18:41:08.692Z,70.38
2022-12-04T18:43:44.049Z,65.43
2022-12-04T18:46:15.493Z,62.00
2022-12-04T18:48:49.628Z,65.78
2022-12-04T18:51:24.589Z,58.22
2022-12-04T18:53:53.220Z,53.40
2022-12-04T18:56:20.703Z,56.50
2022-12-04T18:58:48.267Z,62.10
2022-12-04T19:01:19.254Z,61.78
2022-12-04T19:03:48.176Z,63.45
2022-12-04T19:06:26.676Z,68.53
2022-12-04T19:09:00.513Z,58.47
2022-12-04T19:14:22.690Z,59.33
2022-12-04T19:16:53.224Z,64.20
2022-12-04T19:19:21.304Z,66.57
2022-12-04T19:21:49.397Z,67.45
2022-12-04T19:24:20.119Z,67.55
2022-12-04T19:26:55.830Z,60.90
2022-12-04T19:29:27.493Z,64.25
2022-12-04T19:31:59.656Z,66.40
2022-12-04T19:35:42.557Z,61.53
2022-12-04T19:38:18.099Z,64.40
2022-12-04T19:40:47.374Z,66.60
2022-12-04T19:43:22.497Z,64.85
2022-12-04T19:46:24.100Z,66.40
2022-12-04T19:48:54.953Z,67.53
2022-12-04T19:51:25.332Z,64.80
2022-12-04T19:53:56.709Z,66.50
2022-12-04T19:56:29.310Z,65.40
2022-12-04T19:58:59.309Z,60.47
2022-12-04T20:01:58.661Z,63.40
2022-12-04T20:04:26.036Z,83.45
2022-12-04T20:06:54.332Z,67.18
2022-12-04T20:09:25.408Z,66.10
2022-12-04T20:11:56.138Z,77.63
2022-12-04T20:21:47.056Z,76.18
2022-12-04T20:24:20.903Z,74.82
2022-12-04T20:26:49.994Z,64.57
2022-12-04T20:29:19.206Z,74.03
2022-12-04T20:32:00.596Z,73.20
2022-12-04T20:34:43.258Z,75.15
2022-12-04T20:37:12.545Z,75.05
2022-12-04T20:39:46.564Z,77.13
2022-12-04T20:42:14.813Z,73.60
2022-12-04T20:44:48.028Z,70.32
2022-12-04T20:47:25.680Z,74.78
2022-12-04T20:49:57.109Z,68.05
2022-12-04T20:52:32.256Z,66.60
2022-12-04T20:55:09.405Z,63.00
2022-12-04T20:57:39.883Z,69.05
2022-12-04T21:00:44.809Z,67.10
2022-12-04T21:03:16.935Z,64.95
2022-12-04T21:05:50.644Z,75.05
2022-12-04T21:11:39.145Z,66.72
2022-12-04T21:18:09.873Z,69.35
2022-12-04T21:20:56.560Z,72.20
2022-12-04T21:26:18.807Z,75.25
2022-12-04T21:29:09.516Z,79.47
2022-12-04T21:31:43.029Z,73.35
2022-12-04T21:34:13.569Z,79.47
2022-12-04T21:36:41.786Z,81.97
2022-12-04T21:45:06.383Z,81.03
2022-12-04T21:47:35.352Z,92.38
2022-12-04T22:02:07.915Z,86.93
2022-12-04T22:04:34.906Z,90.57
2022-12-04T22:07:02.291Z,95.32
2022-12-04T22:09:38.939Z,87.13
2022-12-04T22:12:26.846Z,98.10
2022-12-04T22:14:57.230Z,99.22
2022-12-04T22:17:24.090Z,94.47
2022-12-04T22:19:50.938Z,101.38
2022-12-04T22:22:22.320Z,103.07
2022-12-04T22:24:50.589Z,92.85
2022-12-04T22:27:21.899Z,101.55
2022-12-04T22:29:54.427Z,101.72
2022-12-04T22:32:21.303Z,99.80
2022-12-04T22:34:53.434Z,94.82
2022-12-04T22:37:22.917Z,96.97
2022-12-04T22:39:49.903Z,101.07
2022-12-04T22:42:16.984Z,102.32
2022-12-04T22:44:44.836Z,97.35
2022-12-04T22:47:15.628Z,96.95
2022-12-04T22:49:43.063Z,100.78
2022-12-04T22:52:13.915Z,89.13
2022-12-04T22:54:43.157Z,94.32
2022-12-04T22:57:12.794Z,100.10
2022-12-04T22:59:39.745Z,96.00
2022-12-04T23:02:07.814Z,96.35
2022-12-04T23:04:34.739Z,98.97
2022-12-04T23:07:06.379Z,96.75
2022-12-04T23:09:33.375Z,91.47
2022-12-04T23:12:00.537Z,101.57
2022-12-04T23:14:29.065Z,96.63
2022-12-04T23:16:57.551Z,98.22
2022-12-04T23:19:24.521Z,98.97
2022-12-04T23:21:56.951Z,98.68
2022-12-04T23:24:25.908Z,94.18
2022-12-04T23:26:54.264Z,106.75
2022-12-04T23:32:18.350Z,98.60
2022-12-04T23:34:48.628Z,97.93
2022-12-04T23:37:16.665Z,112.75
2022-12-04T23:39:43.498Z,103.55
2022-12-04T23:42:10.487Z,106.80
2022-12-04T23:44:37.399Z,106.38
2022-12-04T23:47:05.602Z,103.47
2022-12-04T23:49:35.247Z,104.82
2022-12-04T23:52:03.270Z,103.68
2022-12-04T23:54:35.028Z,101.88
2022-12-04T23:57:02.212Z,112.83
